createdAt,value
2019-01-19T00:02:32.813Z,98243.09
2019-01-19T00:05:34.199Z,98238.83
2019-01-19T00:08:39.515Z,98234.98
2019-01-19T00:11:54.861Z,98242.26
2019-01-19T00:14:45.880Z,98238.88
2019-01-19T00:17:59.583Z,98235.45
2019-01-19T00:21:10.040Z,98234.61
2019-01-19T00:24:12.363Z,98235.88
2019-01-19T00:27:27.079Z,98232.48
2019-01-19T00:30:54.259Z,98235.13
2019-01-19T00:33:48.076Z,98227.38
2019-01-19T00:36:43.462Z,98224.00
2019-01-19T00:39:52.322Z,98220.98
2019-01-19T00:42:53.442Z,98224.00
2019-01-19T00:46:00.395Z,98223.20
2019-01-19T00:49:09.009Z,98218.52
2019-01-19T00:52:19.159Z,98221.03
2019-01-19T00:55:34.722Z,98219.30
2019-01-19T00:58:33.076Z,98221.07
2019-01-19T01:01:38.983Z,98225.78
2019-01-19T01:04:36.519Z,98230.91
2019-01-19T01:16:04.921Z,98245.02
2019-01-19T01:22:14.538Z,98229.18
2019-01-19T01:34:32.248Z,98224.53
2019-01-19T01:40:57.041Z,98222.48
2019-01-19T01:43:50.004Z,98220.36
2019-01-19T01:49:26.962Z,98215.28
2019-01-19T01:52:08.374Z,98214.85
2019-01-19T01:55:02.689Z,98210.19
2019-01-19T01:58:10.920Z,98217.44
2019-01-19T02:04:20.420Z,98209.76
2019-01-19T02:07:29.056Z,98207.66
2019-01-19T02:10:37.374Z,98205.95
2019-01-19T02:13:45.588Z,98210.23
2019-01-19T02:16:44.520Z,98057.31
2019-01-19T02:19:52.808Z,98207.68
2019-01-19T02:23:01.158Z,98205.58
2019-01-19T02:26:09.372Z,98203.02
2019-01-19T02:29:18.963Z,98200.94
2019-01-19T02:32:27.284Z,98205.62
2019-01-19T02:35:35.528Z,98204.34
2019-01-19T02:38:44.062Z,98201.81
2019-01-19T02:41:54.332Z,98200.50
2019-01-19T02:45:05.947Z,98199.65
2019-01-19T02:47:47.630Z,98190.31
2019-01-19T02:50:29.391Z,98189.89
2019-01-19T02:53:12.940Z,98193.68
2019-01-19T02:55:54.794Z,98185.98
2019-01-19T03:01:56.994Z,98179.25
2019-01-19T03:05:05.634Z,98173.31
2019-01-19T03:08:14.436Z,98172.42
2019-01-19T03:11:22.738Z,98167.75
2019-01-19T03:14:31.858Z,97990.77
2019-01-19T03:17:34.437Z,98166.95
2019-01-19T03:20:30.631Z,98168.67
2019-01-19T03:23:27.373Z,98163.94
2019-01-19T03:26:35.815Z,98158.06
2019-01-19T03:29:50.614Z,98164.00
2019-01-19T03:32:58.870Z,98161.47
2019-01-19T03:36:07.695Z,98162.28
2019-01-19T03:39:16.189Z,98037.92
2019-01-19T03:41:58.370Z,98063.41
2019-01-19T03:44:54.948Z,98158.50
2019-01-19T03:48:03.772Z,98160.62
2019-01-19T03:51:12.335Z,98155.52
2019-01-19T03:54:20.696Z,98147.86
2019-01-19T03:57:28.910Z,98147.04
2019-01-19T04:00:31.419Z,98145.34
2019-01-19T04:03:45.763Z,98137.25
2019-01-19T04:06:57.999Z,98134.70
2019-01-19T04:10:06.081Z,98135.13
2019-01-19T04:13:14.616Z,98142.38
2019-01-19T04:16:22.888Z,98130.05
2019-01-19T04:19:19.343Z,98133.42
2019-01-19T04:22:27.595Z,98129.20
2019-01-19T04:25:19.247Z,98131.30
2019-01-19T04:27:52.389Z,98135.13
2019-01-19T04:30:31.883Z,98132.14
2019-01-19T04:33:02.317Z,98125.80
2019-01-19T04:35:32.718Z,98126.64
2019-01-19T04:38:22.735Z,98125.83
2019-01-19T04:40:53.197Z,98128.81
2019-01-19T04:46:20.019Z,98138.58
2019-01-19T04:49:11.747Z,98128.81
2019-01-19T04:52:00.981Z,98127.95
2019-01-19T04:54:50.345Z,98130.11
2019-01-19T04:57:54.381Z,98124.95
2019-01-19T05:00:32.362Z,98051.48
2019-01-19T05:03:22.666Z,98119.43
2019-01-19T05:05:53.066Z,98114.74
2019-01-19T05:08:23.789Z,98113.89
2019-01-19T05:11:13.547Z,98114.31
2019-01-19T05:14:02.935Z,98112.23
2019-01-19T05:16:52.486Z,98108.39
2019-01-19T05:19:42.023Z,98103.70
2019-01-19T05:22:31.338Z,98097.78
2019-01-19T05:28:02.388Z,98097.81
2019-01-19T05:30:52.751Z,98098.64
2019-01-19T05:33:42.207Z,98092.27
2019-01-19T05:36:12.977Z,98096.56
2019-01-19T05:38:43.333Z,98096.95
2019-01-19T05:41:13.753Z,98096.52
2019-01-19T05:44:03.067Z,98097.41
2019-01-19T05:46:33.842Z,98096.56
2019-01-19T05:49:23.440Z,98095.73
2019-01-19T05:51:53.850Z,98097.39
2019-01-19T05:54:45.781Z,98098.25
2019-01-19T05:57:16.443Z,98093.54
2019-01-19T06:00:03.985Z,98094.41
2019-01-19T06:04:59.780Z,98088.88
2019-01-19T06:07:49.403Z,98094.83
2019-01-19T06:10:19.898Z,98103.33
2019-01-19T06:13:11.216Z,98096.14
2019-01-19T06:15:41.533Z,98092.34
2019-01-19T06:23:47.586Z,98089.77
2019-01-19T06:26:20.303Z,98087.66
2019-01-19T06:28:53.961Z,98085.53
2019-01-19T06:31:24.615Z,98079.17
2019-01-19T06:34:32.781Z,98080.00
2019-01-19T06:37:22.302Z,98073.21
2019-01-19T06:43:06.632Z,98067.23
2019-01-19T06:45:59.296Z,98076.19
2019-01-19T06:48:31.371Z,98069.83
2019-01-19T06:51:01.794Z,98074.50
2019-01-19T06:53:32.341Z,98069.38
2019-01-19T06:56:21.745Z,98078.70
2019-01-19T06:58:52.247Z,98071.51
2019-01-19T07:01:22.579Z,98074.91
2019-01-19T07:03:53.209Z,98075.74
2019-01-19T07:06:25.912Z,98070.66
2019-01-19T07:11:40.284Z,98074.48
2019-01-19T07:14:30.357Z,98080.02
2019-01-19T07:17:07.884Z,98080.01
2019-01-19T07:19:57.233Z,98080.86
2019-01-19T07:22:46.948Z,98076.20
2019-01-19T07:25:17.271Z,98081.70
2019-01-19T07:28:20.369Z,98084.25
2019-01-19T07:30:58.960Z,98082.53
2019-01-19T07:33:48.631Z,98080.86
2019-01-19T07:36:38.114Z,98077.89
2019-01-19T07:39:09.335Z,98085.53
2019-01-19T07:41:50.765Z,98083.78
2019-01-19T07:44:21.356Z,98079.95
2019-01-19T07:46:56.110Z,98085.03
2019-01-19T07:49:44.184Z,98083.33
2019-01-19T07:52:15.367Z,98080.37
2019-01-19T07:54:54.690Z,98082.08
2019-01-19T07:57:44.036Z,98086.32
2019-01-19T08:00:35.019Z,98083.77
2019-01-19T08:03:06.783Z,98079.95
2019-01-19T08:06:18.366Z,98077.75
2019-01-19T08:09:08.742Z,98083.28
2019-01-19T08:11:59.454Z,98084.52
2019-01-19T08:14:30.036Z,98089.22
2019-01-19T08:17:19.657Z,98090.95
2019-01-19T08:22:19.382Z,98093.47
2019-01-19T08:25:09.259Z,98094.76
2019-01-19T08:28:01.800Z,98098.98
2019-01-19T08:31:11.481Z,98096.85
2019-01-19T08:33:44.236Z,98100.67
2019-01-19T08:36:35.543Z,98101.05
2019-01-19T08:39:25.424Z,97945.75
2019-01-19T08:44:56.078Z,98098.91
2019-01-19T08:47:26.430Z,98093.34
2019-01-19T08:50:18.067Z,98096.31
2019-01-19T08:53:07.801Z,98090.33
2019-01-19T08:55:57.680Z,98088.14
2019-01-19T08:58:28.840Z,98089.84
2019-01-19T09:01:18.906Z,98084.26
2019-01-19T09:03:56.532Z,98085.02
2019-01-19T09:06:47.355Z,98086.66
2019-01-19T09:09:17.648Z,98084.48
2019-01-19T09:11:48.742Z,98081.44
2019-01-19T09:14:19.309Z,98083.09
2019-01-19T09:16:49.875Z,98081.74
2019-01-19T09:19:41.114Z,98083.70
2019-01-19T09:22:19.670Z,98080.15
2019-01-19T09:25:12.348Z,98082.96
2019-01-19T09:27:43.616Z,97927.23
2019-01-19T09:30:28.930Z,98082.74
2019-01-19T09:33:35.991Z,98082.22
2019-01-19T09:39:35.316Z,98082.39
2019-01-19T09:42:16.987Z,98074.95
2019-01-19T09:44:58.637Z,98075.77
2019-01-19T09:47:40.830Z,98082.88
2019-01-19T09:50:13.015Z,98079.26
2019-01-19T09:52:43.882Z,98075.45
2019-01-19T09:55:34.350Z,98082.25
2019-01-19T09:58:42.888Z,98079.60
2019-01-19T10:01:32.306Z,98075.08
2019-01-19T10:04:06.349Z,98072.91
2019-01-19T10:06:55.616Z,98075.22
2019-01-19T10:09:26.207Z,98072.46
2019-01-19T10:11:56.681Z,98074.19
2019-01-19T10:14:46.194Z,98067.92
2019-01-19T10:17:35.810Z,98075.30
2019-01-19T10:20:26.174Z,98077.38
2019-01-19T10:23:08.223Z,98082.52
2019-01-19T10:25:52.640Z,98071.81
2019-01-19T10:28:23.513Z,98077.69
2019-01-19T10:31:02.814Z,98063.67
2019-01-19T10:33:55.650Z,98071.58
2019-01-19T10:36:45.106Z,98071.05
2019-01-19T10:45:38.371Z,98072.92
2019-01-19T10:48:13.201Z,98070.78
2019-01-19T10:50:43.548Z,98071.64
2019-01-19T10:56:30.283Z,98065.22
2019-01-19T10:59:02.273Z,98063.94
2019-01-19T11:01:34.724Z,98058.59
2019-01-19T11:04:25.557Z,98057.80
2019-01-19T11:07:24.028Z,98048.40
2019-01-19T11:09:54.683Z,98047.36
2019-01-19T11:12:44.018Z,98042.13
2019-01-19T11:15:15.359Z,98041.87
2019-01-19T11:17:50.601Z,98038.39
2019-01-19T11:20:42.707Z,98032.59
2019-01-19T11:23:31.354Z,98029.51
2019-01-19T11:26:04.889Z,98017.52
2019-01-19T11:28:35.194Z,98026.30
2019-01-19T11:31:05.792Z,98021.97
2019-01-19T11:33:38.430Z,98023.27
2019-01-19T11:36:08.751Z,98017.16
2019-01-19T11:38:39.045Z,98013.81
2019-01-19T11:41:09.568Z,98013.14
2019-01-19T11:43:39.945Z,98009.17
2019-01-19T11:46:10.735Z,98007.20
2019-01-19T11:48:43.677Z,98002.05
2019-01-19T11:51:36.231Z,98001.27
2019-01-19T11:54:09.286Z,97994.22
2019-01-19T12:00:21.309Z,97997.58
2019-01-19T12:08:39.662Z,97987.67
2019-01-19T12:11:29.062Z,97984.13
2019-01-19T12:14:18.697Z,97950.23
2019-01-19T12:16:58.113Z,97983.11
2019-01-19T12:19:46.623Z,97975.02
2019-01-19T12:22:07.158Z,97971.55
2019-01-19T12:24:57.367Z,97970.00
2019-01-19T12:27:29.427Z,97961.12
2019-01-19T12:33:30.809Z,97956.67
2019-01-19T12:36:01.781Z,97952.50
2019-01-19T12:38:51.532Z,97954.21
2019-01-19T12:41:35.824Z,97952.20
2019-01-19T12:44:21.226Z,97851.17
2019-01-19T12:46:57.122Z,97948.94
2019-01-19T12:49:55.675Z,97951.64
2019-01-19T12:52:48.805Z,97948.52
2019-01-19T12:56:00.597Z,97863.95
2019-01-19T12:59:00.001Z,97951.75
2019-01-19T13:01:51.069Z,97947.48
2019-01-19T13:04:46.111Z,97935.19
2019-01-19T13:07:38.205Z,97935.32
2019-01-19T13:13:21.113Z,97927.16
2019-01-19T13:16:05.150Z,97925.64
2019-01-19T13:18:59.210Z,97889.28
2019-01-19T13:22:07.479Z,97918.60
2019-01-19T13:28:22.796Z,97923.26
2019-01-19T13:31:19.355Z,97923.74
2019-01-19T13:34:28.085Z,97911.83
2019-01-19T13:37:37.991Z,97912.85
2019-01-19T13:49:55.669Z,97912.63
2019-01-19T13:53:12.759Z,97901.23
2019-01-19T13:59:40.308Z,97894.42
2019-01-19T14:02:51.183Z,97901.23
2019-01-19T14:05:58.737Z,97801.23
2019-01-19T14:12:19.813Z,97893.38
2019-01-19T14:17:44.412Z,97891.38
2019-01-19T14:20:59.520Z,97890.19
2019-01-19T14:23:54.583Z,97888.20
2019-01-19T14:26:36.494Z,97884.88
2019-01-19T14:29:46.101Z,97883.84
2019-01-19T14:32:39.622Z,97882.17
2019-01-19T14:35:40.734Z,97878.52
2019-01-19T14:38:49.042Z,97876.82
2019-01-19T14:41:33.967Z,97869.65
2019-01-19T14:44:42.543Z,97873.50
2019-01-19T14:48:00.592Z,97873.94
2019-01-19T14:54:23.230Z,97872.23
2019-01-19T14:57:45.014Z,97867.95
2019-01-19T15:01:11.850Z,97871.59
2019-01-19T15:04:14.020Z,97862.27
2019-01-19T15:07:17.702Z,97862.27
2019-01-19T15:10:38.105Z,97864.17
2019-01-19T15:13:32.925Z,97861.03
2019-01-19T15:16:49.254Z,97853.09
2019-01-19T15:20:10.706Z,97857.34
2019-01-19T15:23:19.065Z,97857.23
2019-01-19T15:26:34.886Z,97859.20
2019-01-19T15:29:43.628Z,97850.38
2019-01-19T15:32:43.101Z,97849.72
2019-01-19T15:35:51.894Z,97851.17
2019-01-19T15:39:10.770Z,97846.90
2019-01-19T15:42:01.342Z,97844.39
2019-01-19T15:45:17.623Z,97843.17
2019-01-19T15:48:14.001Z,97844.02
2019-01-19T15:51:15.542Z,97839.51
2019-01-19T15:54:21.569Z,97835.95
2019-01-19T15:57:36.876Z,97837.30
2019-01-19T16:00:42.556Z,97834.80
2019-01-19T16:03:46.922Z,97840.88
2019-01-19T16:06:50.212Z,97838.44
2019-01-19T16:09:56.929Z,97839.52
2019-01-19T16:13:06.402Z,97841.00
2019-01-19T16:16:21.270Z,97837.27
2019-01-19T16:19:18.400Z,97832.80
2019-01-19T16:22:06.246Z,97835.83
2019-01-19T16:25:19.589Z,97831.29
2019-01-19T16:28:28.991Z,97831.91
2019-01-19T16:32:16.363Z,97828.68
2019-01-19T16:35:21.917Z,97828.30
2019-01-19T16:38:32.143Z,97828.03
2019-01-19T16:41:37.800Z,97822.61
2019-01-19T16:44:56.104Z,97815.02
2019-01-19T16:48:34.297Z,97816.81
2019-01-19T16:51:33.202Z,97816.15
2019-01-19T16:54:46.115Z,97816.78
2019-01-19T16:58:06.529Z,97809.62
2019-01-19T17:01:13.149Z,97814.70
2019-01-19T17:04:06.095Z,97818.20
2019-01-19T17:07:26.318Z,97815.33
2019-01-19T17:10:25.131Z,97812.03
2019-01-19T17:14:04.629Z,97811.53
2019-01-19T17:17:27.770Z,97812.69
2019-01-19T17:20:32.468Z,97812.77
2019-01-19T17:23:31.336Z,97810.20
2019-01-19T17:26:52.854Z,97812.69
2019-01-19T17:30:09.054Z,97808.08
2019-01-19T17:33:05.447Z,97810.33
2019-01-19T17:36:31.749Z,97812.34
2019-01-19T17:39:47.427Z,97808.63
2019-01-19T17:43:07.920Z,97811.18
2019-01-19T17:46:18.444Z,97809.59
2019-01-19T17:49:16.799Z,97811.77
2019-01-19T17:52:27.864Z,97805.80
2019-01-19T17:55:35.109Z,97804.78
2019-01-19T17:59:03.847Z,97806.91
2019-01-19T18:02:21.514Z,97806.16
2019-01-19T18:05:10.498Z,97807.94
2019-01-19T18:08:53.035Z,97805.38
2019-01-19T18:11:52.089Z,97809.28
2019-01-19T18:15:21.090Z,97798.56
2019-01-19T18:18:31.892Z,97808.10
2019-01-19T18:21:25.017Z,97803.12
2019-01-19T18:24:33.403Z,97799.35
2019-01-19T18:28:01.986Z,97795.12
2019-01-19T18:31:02.611Z,97790.02
2019-01-19T18:33:54.093Z,97797.13
2019-01-19T18:37:12.708Z,97793.41
2019-01-19T18:40:42.130Z,97798.13
2019-01-19T18:43:50.626Z,97785.42
2019-01-19T18:46:42.613Z,97788.09
2019-01-19T18:50:05.081Z,97784.27
2019-01-19T18:52:56.572Z,97783.41
2019-01-19T18:56:01.459Z,97785.14
2019-01-19T18:59:04.999Z,97780.97
2019-01-19T19:02:25.122Z,97781.00
2019-01-19T19:05:30.155Z,97778.90
2019-01-19T19:08:40.230Z,97774.35
2019-01-19T19:11:54.992Z,97770.50
2019-01-19T19:14:57.476Z,97776.37
2019-01-19T19:18:09.823Z,97775.91
2019-01-19T19:21:43.247Z,97777.27
2019-01-19T19:24:45.492Z,97785.91
2019-01-19T19:27:59.073Z,97784.64
2019-01-19T19:30:54.755Z,97785.48
2019-01-19T19:33:41.899Z,97787.28
2019-01-19T19:36:53.392Z,97777.10
2019-01-19T19:40:10.692Z,97777.13
2019-01-19T19:43:16.410Z,97772.49
2019-01-19T19:46:24.277Z,97773.33
2019-01-19T19:49:25.155Z,97775.83
2019-01-19T19:52:07.843Z,97777.98
2019-01-19T19:54:44.951Z,97774.64
2019-01-19T19:57:20.759Z,97775.11
2019-01-19T19:59:56.845Z,97781.53
2019-01-19T20:02:30.508Z,97773.89
2019-01-19T20:05:07.517Z,97776.89
2019-01-19T20:08:18.426Z,97780.69
2019-01-19T20:10:31.907Z,97781.98
2019-01-19T20:13:07.906Z,97790.92
2019-01-19T20:15:42.471Z,97781.17
2019-01-19T20:18:13.116Z,97784.97
2019-01-19T20:21:07.912Z,97775.59
2019-01-19T20:23:41.102Z,97780.70
2019-01-19T20:26:23.825Z,97783.72
2019-01-19T20:28:57.291Z,97784.08
2019-01-19T20:31:36.249Z,97782.89
2019-01-19T20:34:13.714Z,97782.07
2019-01-19T20:36:45.327Z,97782.90
2019-01-19T20:39:17.155Z,97782.09
2019-01-19T20:41:49.227Z,97776.54
2019-01-19T20:44:22.733Z,97775.65
2019-01-19T20:46:58.678Z,97774.81
2019-01-19T20:49:30.819Z,97764.61
2019-01-19T20:52:11.760Z,97772.26
2019-01-19T20:54:55.733Z,97768.44
2019-01-19T20:57:31.547Z,97773.53
2019-01-19T21:00:13.748Z,97776.51
2019-01-19T21:02:55.587Z,97773.53
2019-01-19T21:05:28.539Z,97775.73
2019-01-19T21:08:03.328Z,97770.69
2019-01-19T21:10:35.495Z,97766.84
2019-01-19T21:13:06.192Z,97767.29
2019-01-19T21:15:36.722Z,97763.92
2019-01-19T21:18:07.134Z,97773.66
2019-01-19T21:20:39.480Z,97764.79
2019-01-19T21:23:12.237Z,97766.47
2019-01-19T21:25:49.821Z,97766.47
2019-01-19T21:28:25.374Z,97762.23
2019-01-19T21:30:54.144Z,97756.23
2019-01-19T21:33:24.623Z,97756.67
2019-01-19T21:36:06.071Z,97758.39
2019-01-19T21:38:40.724Z,97756.73
2019-01-19T21:41:20.810Z,97752.91
2019-01-19T21:43:58.827Z,97755.05
2019-01-19T21:46:30.698Z,97752.11
2019-01-19T21:49:04.201Z,97745.25
2019-01-19T21:51:40.149Z,97748.25
2019-01-19T21:54:09.530Z,97742.74
2019-01-19T21:56:45.883Z,97747.38
2019-01-19T21:59:17.556Z,97756.28
2019-01-19T22:01:55.647Z,97758.86
2019-01-19T22:04:34.521Z,97755.88
2019-01-19T22:07:06.932Z,97750.77
2019-01-19T22:09:42.709Z,97757.56
2019-01-19T22:12:14.890Z,97754.63
2019-01-19T22:14:54.194Z,97750.02
2019-01-19T22:17:26.048Z,97751.77
2019-01-19T22:20:00.157Z,97747.95
2019-01-19T22:22:30.968Z,97749.59
2019-01-19T22:25:06.134Z,97753.80
2019-01-19T22:27:41.187Z,97753.03
2019-01-19T22:33:05.104Z,97751.36
2019-01-19T22:35:39.205Z,97748.84
2019-01-19T22:38:29.847Z,97750.55
2019-01-19T22:41:09.319Z,97756.92
2019-01-19T22:43:42.203Z,97754.81
2019-01-19T22:46:12.902Z,97742.50
2019-01-19T22:48:51.103Z,97748.42
2019-01-19T22:51:21.568Z,97746.24
2019-01-19T22:53:52.436Z,97742.44
2019-01-19T22:56:22.756Z,97745.47
2019-01-19T22:58:53.514Z,97745.45
2019-01-19T23:01:48.696Z,97739.13
2019-01-19T23:04:22.849Z,97747.20
2019-01-19T23:07:02.410Z,97745.08
2019-01-19T23:09:35.127Z,97741.27
2019-01-19T23:12:06.952Z,97741.70
2019-01-19T23:14:40.125Z,97739.61
2019-01-19T23:17:13.987Z,97736.20
2019-01-19T23:19:51.865Z,97735.34
2019-01-19T23:22:23.800Z,97732.36
2019-01-19T23:24:57.436Z,97733.22
2019-01-19T23:27:28.156Z,97736.63
2019-01-19T23:30:02.543Z,97733.23
2019-01-19T23:32:32.832Z,97733.23
2019-01-19T23:35:12.744Z,97739.63
2019-01-19T23:37:51.950Z,97733.66
2019-01-19T23:40:22.257Z,97737.92
2019-01-19T23:43:08.048Z,97741.27
2019-01-19T23:45:38.734Z,97732.34
2019-01-19T23:48:09.413Z,97736.97
2019-01-19T23:50:45.471Z,97741.27
2019-01-19T23:53:29.544Z,97734.91
2019-01-19T23:55:59.983Z,97739.58
2019-01-19T23:58:30.782Z,97731.94
